createdAt,value
2019-05-19T00:01:44.236Z,94501.58
2019-05-19T00:04:11.711Z,94500.20
2019-05-19T00:06:39.150Z,94499.10
2019-05-19T00:09:06.756Z,94492.30
2019-05-19T00:11:34.200Z,94491.77
2019-05-19T00:14:01.947Z,94494.98
2019-05-19T00:16:29.386Z,94492.38
2019-05-19T00:18:56.772Z,94495.86
2019-05-19T00:21:24.340Z,94487.17
2019-05-19T00:23:51.778Z,94496.61
2019-05-19T00:26:19.365Z,94496.73
2019-05-19T00:28:46.798Z,94500.33
2019-05-19T00:31:14.234Z,94487.82
2019-05-19T00:33:41.772Z,94495.36
2019-05-19T00:36:09.286Z,94487.45
2019-05-19T00:38:36.693Z,94503.44
2019-05-19T00:41:04.170Z,94502.67
2019-05-19T00:43:31.750Z,94503.37
2019-05-19T00:45:59.394Z,94501.86
2019-05-19T00:48:26.833Z,94503.80
2019-05-19T00:50:54.275Z,94498.82
2019-05-19T00:53:21.744Z,94504.91
2019-05-19T00:55:50.533Z,94497.09
2019-05-19T00:58:18.618Z,94498.66
2019-05-19T01:00:46.146Z,94494.03
2019-05-19T01:03:13.562Z,94492.02
2019-05-19T01:05:40.949Z,94492.43
2019-05-19T01:08:08.411Z,94499.09
2019-05-19T01:10:35.829Z,94504.98
2019-05-19T01:13:03.280Z,94505.66
2019-05-19T01:15:30.741Z,94505.26
2019-05-19T01:17:58.086Z,94503.14
2019-05-19T01:20:25.508Z,94501.63
2019-05-19T01:22:52.938Z,94483.61
2019-05-19T01:25:20.433Z,94494.87
2019-05-19T01:27:47.816Z,94488.67
2019-05-19T01:30:15.782Z,94485.63
2019-05-19T01:32:43.201Z,94487.39
2019-05-19T01:35:11.131Z,94490.55
2019-05-19T01:37:38.599Z,94495.65
2019-05-19T01:40:06.787Z,94491.23
2019-05-19T01:42:34.187Z,94496.92
2019-05-19T01:45:01.697Z,94494.09
2019-05-19T01:47:30.140Z,94487.39
2019-05-19T01:50:16.557Z,94485.48
2019-05-19T01:52:26.987Z,94477.46
2019-05-19T01:54:54.417Z,94478.02
2019-05-19T01:57:21.856Z,94478.91
2019-05-19T01:59:49.252Z,94482.41
2019-05-19T02:02:17.698Z,94469.98
2019-05-19T02:04:45.175Z,94481.77
2019-05-19T02:07:12.542Z,94478.20
2019-05-19T02:09:40.018Z,94470.77
2019-05-19T02:12:07.457Z,94477.89
2019-05-19T02:14:34.945Z,94478.02
2019-05-19T02:17:02.439Z,94488.41
2019-05-19T02:19:29.808Z,94484.98
2019-05-19T02:21:57.258Z,94495.26
2019-05-19T02:24:24.694Z,94488.75
2019-05-19T02:26:52.122Z,94492.39
2019-05-19T02:29:19.999Z,94492.56
2019-05-19T02:31:47.456Z,94500.55
2019-05-19T02:34:15.601Z,94493.15
2019-05-19T02:36:43.111Z,94496.77
2019-05-19T02:39:11.104Z,94498.11
2019-05-19T02:41:41.434Z,94491.31
2019-05-19T02:44:09.857Z,94484.63
2019-05-19T02:46:38.976Z,94494.47
2019-05-19T02:49:07.725Z,94494.66
2019-05-19T02:51:37.023Z,94495.09
2019-05-19T02:54:05.976Z,94499.63
2019-05-19T02:56:33.941Z,94504.02
2019-05-19T02:59:01.876Z,94499.69
2019-05-19T03:01:29.575Z,94501.83
2019-05-19T03:03:57.058Z,94511.00
2019-05-19T03:06:24.554Z,94512.68
2019-05-19T03:08:51.935Z,94511.66
2019-05-19T03:11:19.426Z,94520.75
2019-05-19T03:13:46.946Z,94516.66
2019-05-19T03:16:14.321Z,94520.52
2019-05-19T03:18:41.743Z,94522.06
2019-05-19T03:21:11.610Z,94520.92
2019-05-19T03:23:38.538Z,94514.00
2019-05-19T03:26:05.993Z,94523.98
2019-05-19T03:28:33.437Z,94523.98
2019-05-19T03:31:11.615Z,94531.03
2019-05-19T03:33:41.268Z,94529.08
2019-05-19T03:36:09.604Z,94529.29
2019-05-19T03:38:37.035Z,94527.98
2019-05-19T03:41:04.479Z,94528.77
2019-05-19T03:43:32.257Z,94515.20
2019-05-19T03:45:59.672Z,94520.68
2019-05-19T03:48:27.095Z,94528.46
2019-05-19T03:50:54.526Z,94529.36
2019-05-19T03:53:22.022Z,94526.19
2019-05-19T03:55:49.483Z,94541.94
2019-05-19T03:58:16.904Z,94536.06
2019-05-19T04:00:44.363Z,94537.08
2019-05-19T04:03:11.737Z,94533.37
2019-05-19T04:05:39.226Z,94535.13
2019-05-19T04:08:06.697Z,94547.29
2019-05-19T04:10:34.996Z,94546.83
2019-05-19T04:13:02.440Z,94539.14
2019-05-19T04:15:29.898Z,94532.20
2019-05-19T04:17:57.290Z,94540.16
2019-05-19T04:20:24.721Z,94537.43
2019-05-19T04:22:52.149Z,94540.77
2019-05-19T04:25:19.693Z,94539.31
2019-05-19T04:27:47.148Z,94537.81
2019-05-19T04:30:15.192Z,94544.59
2019-05-19T04:32:42.706Z,94544.70
2019-05-19T04:35:10.303Z,94544.52
2019-05-19T04:37:37.916Z,94557.91
2019-05-19T04:40:05.673Z,94556.14
2019-05-19T04:42:33.084Z,94550.41
2019-05-19T04:45:00.489Z,94548.17
2019-05-19T04:47:27.970Z,94546.53
2019-05-19T04:49:55.450Z,94539.06
2019-05-19T04:52:22.935Z,94532.41
2019-05-19T04:54:50.505Z,94548.12
2019-05-19T04:57:17.900Z,94547.25
2019-05-19T04:59:45.336Z,94545.05
2019-05-19T05:02:12.800Z,94552.10
2019-05-19T05:04:40.336Z,94561.88
2019-05-19T05:07:07.857Z,94559.41
2019-05-19T05:09:35.274Z,94549.67
2019-05-19T05:12:02.702Z,94550.72
2019-05-19T05:14:30.162Z,94555.23
2019-05-19T05:17:00.155Z,94543.81
2019-05-19T05:19:27.583Z,94547.43
2019-05-19T05:21:55.031Z,94545.59
2019-05-19T05:24:23.020Z,94549.88
2019-05-19T05:26:50.516Z,94547.34
2019-05-19T05:29:17.965Z,94548.36
2019-05-19T05:31:45.419Z,94549.98
2019-05-19T05:34:12.889Z,94542.23
2019-05-19T05:36:40.392Z,94541.45
2019-05-19T05:39:08.042Z,94536.86
2019-05-19T05:41:35.841Z,94541.84
2019-05-19T05:44:03.224Z,94537.98
2019-05-19T05:46:30.659Z,94529.13
2019-05-19T05:48:58.071Z,94538.45
2019-05-19T05:51:25.437Z,94533.50
2019-05-19T05:53:52.971Z,94535.71
2019-05-19T05:56:20.423Z,94531.69
2019-05-19T05:58:47.815Z,94534.33
2019-05-19T06:01:15.283Z,94532.23
2019-05-19T06:03:42.790Z,94537.83
2019-05-19T06:06:10.235Z,94532.30
2019-05-19T06:08:37.782Z,94528.52
2019-05-19T06:11:05.168Z,94531.27
2019-05-19T06:13:32.651Z,94533.48
2019-05-19T06:16:00.209Z,94538.66
2019-05-19T06:18:27.548Z,94540.73
2019-05-19T06:20:54.996Z,94545.30
2019-05-19T06:23:22.418Z,94535.73
2019-05-19T06:25:49.796Z,94537.20
2019-05-19T06:28:18.712Z,94541.54
2019-05-19T06:30:46.137Z,94534.63
2019-05-19T06:33:13.659Z,94535.95
2019-05-19T06:35:41.147Z,94532.70
2019-05-19T06:38:10.784Z,94531.89
2019-05-19T06:40:38.556Z,94536.74
2019-05-19T06:43:06.098Z,94524.72
2019-05-19T06:45:33.569Z,94523.13
2019-05-19T06:48:01.085Z,94524.78
2019-05-19T06:50:28.574Z,94530.13
2019-05-19T06:53:11.197Z,94528.66
2019-05-19T06:55:25.535Z,94532.34
2019-05-19T06:57:53.109Z,94520.73
2019-05-19T07:00:21.436Z,94520.73
2019-05-19T07:02:49.933Z,94519.70
2019-05-19T07:05:17.459Z,94527.36
2019-05-19T07:07:45.878Z,94526.48
2019-05-19T07:10:13.498Z,94521.06
2019-05-19T07:12:40.953Z,94521.29
2019-05-19T07:15:09.477Z,94511.22
2019-05-19T07:17:36.957Z,94518.38
2019-05-19T07:20:04.601Z,94513.18
2019-05-19T07:22:32.160Z,94509.87
2019-05-19T07:24:59.702Z,94508.48
2019-05-19T07:27:27.150Z,94508.13
2019-05-19T07:29:54.580Z,94509.22
2019-05-19T07:32:22.044Z,94505.41
2019-05-19T07:34:49.480Z,94504.70
2019-05-19T07:37:16.868Z,94500.52
2019-05-19T07:39:44.336Z,94508.05
2019-05-19T07:42:12.044Z,94503.23
2019-05-19T07:44:39.488Z,94491.48
2019-05-19T07:47:07.066Z,94492.98
2019-05-19T07:49:34.572Z,94492.25
2019-05-19T07:52:02.104Z,94490.23
2019-05-19T07:54:29.599Z,94495.92
2019-05-19T07:56:57.012Z,94494.92
2019-05-19T07:59:24.468Z,94494.92
2019-05-19T08:01:51.895Z,94495.34
2019-05-19T08:04:19.878Z,94491.72
2019-05-19T08:06:47.385Z,94487.86
2019-05-19T08:09:14.857Z,94482.59
2019-05-19T08:11:42.425Z,94487.98
2019-05-19T08:14:09.841Z,94480.41
2019-05-19T08:16:37.286Z,94481.26
2019-05-19T08:19:04.717Z,94482.52
2019-05-19T08:21:32.153Z,94477.95
2019-05-19T08:24:01.072Z,94476.83
2019-05-19T08:26:28.789Z,94470.47
2019-05-19T08:28:56.209Z,94465.06
2019-05-19T08:31:23.576Z,94465.06
2019-05-19T08:33:51.142Z,94462.29
2019-05-19T08:36:18.659Z,94463.55
2019-05-19T08:38:46.070Z,94449.87
2019-05-19T08:41:13.504Z,94449.87
2019-05-19T08:43:41.094Z,94457.76
2019-05-19T08:46:08.515Z,94447.34
2019-05-19T08:48:35.978Z,94447.34
2019-05-19T08:51:03.593Z,94452.73
2019-05-19T08:53:30.994Z,94448.30
2019-05-19T08:55:58.414Z,94454.33
2019-05-19T08:58:25.918Z,94440.05
2019-05-19T09:00:53.404Z,94441.31
2019-05-19T09:03:20.824Z,94444.22
2019-05-19T09:05:48.275Z,94446.97
2019-05-19T09:08:15.675Z,94446.45
2019-05-19T09:10:43.182Z,94446.45
2019-05-19T09:13:10.717Z,94448.75
2019-05-19T09:15:38.199Z,94441.45
2019-05-19T09:18:05.669Z,94439.95
2019-05-19T09:20:33.265Z,94442.63
2019-05-19T09:23:00.630Z,94437.09
2019-05-19T09:25:28.148Z,94431.98
2019-05-19T09:27:55.589Z,94421.83
2019-05-19T09:30:23.261Z,94413.46
2019-05-19T09:32:50.686Z,94417.28
2019-05-19T09:35:18.321Z,94408.03
2019-05-19T09:37:45.756Z,94410.39
2019-05-19T09:40:13.620Z,94405.58
2019-05-19T09:42:40.993Z,94408.67
2019-05-19T09:45:09.105Z,94406.00
2019-05-19T09:47:36.700Z,94406.94
2019-05-19T09:50:05.222Z,94405.74
2019-05-19T09:52:32.691Z,94393.77
2019-05-19T09:55:00.153Z,94393.34
2019-05-19T09:57:27.575Z,94393.34
2019-05-19T09:59:55.027Z,94393.14
2019-05-19T10:02:22.405Z,94393.14
2019-05-19T10:04:49.877Z,94396.13
2019-05-19T10:07:17.339Z,94391.61
2019-05-19T10:09:57.391Z,94391.70
2019-05-19T10:12:24.866Z,94379.12
2019-05-19T10:14:52.269Z,94375.91
2019-05-19T10:17:20.309Z,94367.70
2019-05-19T10:19:47.751Z,94364.54
2019-05-19T10:22:15.142Z,94351.47
2019-05-19T10:24:57.817Z,94360.02
2019-05-19T10:27:11.925Z,94356.28
2019-05-19T10:29:39.307Z,94353.75
2019-05-19T10:32:06.744Z,94352.50
2019-05-19T10:34:34.192Z,94350.09
2019-05-19T10:37:02.128Z,94340.75
2019-05-19T10:39:29.555Z,94334.45
2019-05-19T10:41:57.069Z,94342.77
2019-05-19T10:44:24.551Z,94336.56
2019-05-19T10:46:51.993Z,94341.00
2019-05-19T10:49:19.438Z,94329.70
2019-05-19T10:51:47.004Z,94331.59
2019-05-19T10:54:14.430Z,94342.08
2019-05-19T10:56:41.887Z,94329.16
2019-05-19T10:59:09.366Z,94333.70
2019-05-19T11:01:36.719Z,94332.17
2019-05-19T11:04:04.246Z,94318.41
2019-05-19T11:06:31.727Z,94325.74
2019-05-19T11:08:59.158Z,94309.73
2019-05-19T11:11:26.707Z,94314.34
2019-05-19T11:13:54.130Z,94318.03
2019-05-19T11:16:21.490Z,94313.92
2019-05-19T11:18:49.043Z,94309.13
2019-05-19T11:21:16.484Z,94317.28
2019-05-19T11:23:43.965Z,94312.16
2019-05-19T11:26:11.353Z,94318.77
2019-05-19T11:28:38.959Z,94317.09
2019-05-19T11:31:06.566Z,94314.88
2019-05-19T11:33:34.035Z,94306.87
2019-05-19T11:36:01.502Z,94300.34
2019-05-19T11:38:29.120Z,94294.23
2019-05-19T11:40:56.585Z,94296.67
2019-05-19T11:43:24.006Z,94290.95
2019-05-19T11:45:51.464Z,94293.39
2019-05-19T11:48:19.002Z,94293.73
2019-05-19T11:50:46.467Z,94285.69
2019-05-19T11:53:13.875Z,94293.27
2019-05-19T11:55:41.390Z,94281.02
2019-05-19T11:58:08.863Z,94288.88
2019-05-19T12:00:36.273Z,94297.77
2019-05-19T12:03:03.730Z,94298.93
2019-05-19T12:05:31.384Z,94296.25
2019-05-19T12:07:58.840Z,94291.93
2019-05-19T12:10:26.244Z,94289.06
2019-05-19T12:12:53.769Z,94298.26
2019-05-19T12:15:21.414Z,94296.08
2019-05-19T12:17:48.821Z,94301.22
2019-05-19T12:20:16.208Z,94296.56
2019-05-19T12:22:43.717Z,94289.31
2019-05-19T12:25:11.392Z,94283.26
2019-05-19T12:27:38.766Z,94266.71
2019-05-19T12:30:07.075Z,94284.31
2019-05-19T12:32:34.809Z,94291.96
2019-05-19T12:35:02.259Z,94295.27
2019-05-19T12:37:30.240Z,94280.34
2019-05-19T12:39:57.789Z,94278.28
2019-05-19T12:42:25.254Z,94277.81
2019-05-19T12:44:52.616Z,94274.37
2019-05-19T12:47:20.073Z,94278.97
2019-05-19T12:49:47.512Z,94274.48
2019-05-19T12:52:14.991Z,94276.98
2019-05-19T12:54:42.531Z,94270.73
2019-05-19T12:57:10.156Z,94270.43
2019-05-19T12:59:37.657Z,94270.19
2019-05-19T13:02:05.225Z,94270.19
2019-05-19T13:04:32.743Z,94275.16
2019-05-19T13:07:00.187Z,94276.42
2019-05-19T13:09:27.672Z,94275.95
2019-05-19T13:11:55.094Z,94280.27
2019-05-19T13:14:22.574Z,94275.80
2019-05-19T13:16:49.956Z,94275.16
2019-05-19T13:19:17.501Z,94274.48
2019-05-19T13:21:44.994Z,94277.26
2019-05-19T13:24:12.561Z,94271.78
2019-05-19T13:26:55.620Z,94275.91
2019-05-19T13:29:10.228Z,94277.02
2019-05-19T13:31:37.708Z,94276.30
2019-05-19T13:34:05.285Z,94280.53
2019-05-19T13:36:33.371Z,94270.11
2019-05-19T13:39:00.933Z,94272.31
2019-05-19T13:41:28.385Z,94250.75
2019-05-19T13:43:55.823Z,94250.75
2019-05-19T13:46:23.288Z,94250.83
2019-05-19T13:48:50.809Z,94263.77
2019-05-19T13:51:18.205Z,94258.23
2019-05-19T13:53:45.680Z,94253.28
2019-05-19T13:56:13.101Z,94261.37
2019-05-19T13:58:40.541Z,94258.34
2019-05-19T14:01:08.016Z,94258.34
2019-05-19T14:03:35.477Z,94252.52
2019-05-19T14:06:03.001Z,94243.50
2019-05-19T14:08:30.453Z,94258.84
2019-05-19T14:10:57.940Z,94258.53
2019-05-19T14:13:25.466Z,94248.34
2019-05-19T14:15:52.879Z,94234.04
2019-05-19T14:18:20.276Z,94238.28
2019-05-19T14:20:47.735Z,94247.53
2019-05-19T14:23:15.183Z,94239.94
2019-05-19T14:25:42.648Z,94243.11
2019-05-19T14:28:10.104Z,94245.83
2019-05-19T14:30:37.527Z,94242.98
2019-05-19T14:33:05.158Z,94235.56
2019-05-19T14:35:32.628Z,94242.75
2019-05-19T14:38:00.530Z,94236.11
2019-05-19T14:40:28.073Z,94233.48
2019-05-19T14:42:59.199Z,94229.88
2019-05-19T14:45:26.628Z,94230.59
2019-05-19T14:47:54.091Z,94227.54
2019-05-19T14:50:21.641Z,94228.83
2019-05-19T14:52:49.027Z,94222.22
2019-05-19T14:55:16.689Z,94218.52
2019-05-19T14:57:45.568Z,94226.21
2019-05-19T15:00:13.988Z,94218.90
2019-05-19T15:02:41.471Z,94224.06
2019-05-19T15:05:09.742Z,94220.69
2019-05-19T15:07:37.329Z,94221.10
2019-05-19T15:10:04.922Z,94215.28
2019-05-19T15:12:32.424Z,94218.89
2019-05-19T15:14:59.856Z,94213.63
2019-05-19T15:17:27.281Z,94221.09
2019-05-19T15:19:54.636Z,94214.05
2019-05-19T15:22:22.064Z,94211.19
2019-05-19T15:24:49.521Z,94195.14
2019-05-19T15:27:16.917Z,94199.61
2019-05-19T15:29:44.394Z,94189.58
2019-05-19T15:32:11.840Z,94187.17
2019-05-19T15:34:39.416Z,94191.10
2019-05-19T15:37:07.342Z,94188.28
2019-05-19T15:39:34.903Z,94181.62
2019-05-19T15:42:02.464Z,94183.80
2019-05-19T15:44:29.934Z,94182.61
2019-05-19T15:46:57.336Z,94168.84
2019-05-19T15:49:24.832Z,94168.27
2019-05-19T15:52:01.907Z,94163.09
2019-05-19T15:54:21.670Z,94160.32
2019-05-19T15:56:49.093Z,94169.05
2019-05-19T15:59:16.552Z,94167.23
2019-05-19T16:01:44.006Z,94165.80
2019-05-19T16:04:11.399Z,94162.72
2019-05-19T16:06:39.232Z,94160.48
2019-05-19T16:09:07.179Z,94158.02
2019-05-19T16:11:34.660Z,94150.87
2019-05-19T16:14:02.274Z,94144.59
2019-05-19T16:16:29.650Z,94141.35
2019-05-19T16:18:57.113Z,94145.89
2019-05-19T16:21:24.541Z,94142.50
2019-05-19T16:23:52.030Z,94150.56
2019-05-19T16:26:19.404Z,94147.37
2019-05-19T16:28:46.852Z,94141.05
2019-05-19T16:31:14.310Z,94143.66
2019-05-19T16:33:41.704Z,94138.84
2019-05-19T16:36:09.277Z,94138.00
2019-05-19T16:38:37.355Z,94139.74
2019-05-19T16:41:04.909Z,94137.69
2019-05-19T16:43:32.502Z,94132.02
2019-05-19T16:45:59.977Z,94141.04
2019-05-19T16:48:27.518Z,94138.02
2019-05-19T16:50:55.057Z,94142.60
2019-05-19T16:53:22.821Z,94142.85
2019-05-19T16:55:50.310Z,94142.85
2019-05-19T16:58:21.143Z,94133.36
2019-05-19T17:00:47.125Z,94128.88
2019-05-19T17:03:14.580Z,94141.60
2019-05-19T17:05:42.063Z,94134.22
2019-05-19T17:08:09.486Z,94135.10
2019-05-19T17:10:37.125Z,94132.08
2019-05-19T17:13:04.535Z,94120.38
2019-05-19T17:15:31.944Z,94128.41
2019-05-19T17:17:59.465Z,94124.47
2019-05-19T17:20:30.578Z,94124.47
2019-05-19T17:22:56.370Z,94129.86
2019-05-19T17:25:23.816Z,94124.82
2019-05-19T17:27:51.428Z,94126.70
2019-05-19T17:30:20.849Z,94121.09
2019-05-19T17:32:51.380Z,94129.36
2019-05-19T17:35:20.271Z,94125.91
2019-05-19T17:38:29.481Z,94124.42
2019-05-19T17:45:16.319Z,94105.45
2019-05-19T17:47:44.057Z,94108.45
2019-05-19T17:50:13.015Z,94096.88
2019-05-19T17:56:07.979Z,94104.23
2019-05-19T17:58:35.832Z,94105.27
2019-05-19T18:01:05.630Z,94100.71
2019-05-19T18:03:33.681Z,94100.30
2019-05-19T18:06:01.065Z,94097.23
2019-05-19T18:08:28.555Z,94087.98
2019-05-19T18:14:55.095Z,94097.36
2019-05-19T18:17:22.677Z,94097.36
2019-05-19T18:19:50.251Z,94099.30
2019-05-19T18:22:17.771Z,94095.94
2019-05-19T18:24:45.268Z,94097.95
2019-05-19T18:27:12.917Z,94091.02
2019-05-19T18:29:40.291Z,94082.86
2019-05-19T18:32:07.803Z,94079.79
2019-05-19T18:34:35.310Z,94081.36
2019-05-19T18:37:03.447Z,94060.63
2019-05-19T18:39:31.022Z,94098.31
2019-05-19T18:41:58.530Z,94106.44
2019-05-19T18:44:25.943Z,94107.38
2019-05-19T18:46:53.412Z,94101.21
2019-05-19T18:49:20.867Z,94104.79
2019-05-19T18:51:48.444Z,94107.84
2019-05-19T18:54:15.831Z,94111.33
2019-05-19T18:56:43.531Z,94108.66
2019-05-19T18:59:11.088Z,94111.59
2019-05-19T19:01:38.675Z,94111.94
2019-05-19T19:04:06.428Z,94120.06
2019-05-19T19:06:34.354Z,94128.22
2019-05-19T19:09:02.273Z,94119.55
2019-05-19T19:11:30.002Z,94120.89
2019-05-19T19:13:57.399Z,94128.32
2019-05-19T19:16:24.896Z,94123.73
2019-05-19T19:18:52.415Z,94125.73
2019-05-19T19:21:19.873Z,94129.14
2019-05-19T19:23:47.407Z,94122.45
2019-05-19T19:26:14.805Z,94136.84
2019-05-19T19:28:42.337Z,94145.03
2019-05-19T19:31:09.815Z,94135.81
2019-05-19T19:33:37.314Z,94136.88
2019-05-19T19:36:05.280Z,94139.34
2019-05-19T19:38:32.864Z,94145.13
2019-05-19T19:41:00.488Z,94140.94
2019-05-19T19:43:27.929Z,94145.55
2019-05-19T19:45:55.375Z,94142.00
2019-05-19T19:48:22.876Z,94148.03
2019-05-19T19:50:50.374Z,94155.70
2019-05-19T19:53:17.806Z,94162.99
2019-05-19T19:55:45.261Z,94168.62
2019-05-19T19:58:12.711Z,94170.23
2019-05-19T20:00:42.243Z,94174.10
2019-05-19T20:03:09.761Z,94174.55
2019-05-19T20:05:37.441Z,94175.92
2019-05-19T20:08:05.081Z,94173.62
2019-05-19T20:10:32.520Z,94184.83
2019-05-19T20:13:00.038Z,94189.36
2019-05-19T20:15:27.434Z,94194.43
2019-05-19T20:17:54.917Z,94202.69
2019-05-19T20:20:24.143Z,94201.31
2019-05-19T20:22:52.707Z,94206.70
2019-05-19T20:25:20.282Z,94202.91
2019-05-19T20:27:47.756Z,94203.00
2019-05-19T20:30:15.309Z,94216.31
2019-05-19T20:32:42.810Z,94215.48
2019-05-19T20:35:10.904Z,94215.06
2019-05-19T20:37:38.412Z,94214.33
2019-05-19T20:40:06.119Z,94212.53
2019-05-19T20:42:33.504Z,94204.59
2019-05-19T20:45:01.103Z,94211.98
2019-05-19T20:47:28.567Z,94210.17
2019-05-19T20:49:56.007Z,94207.55
2019-05-19T20:52:23.450Z,94223.53
2019-05-19T20:54:50.932Z,94217.67
2019-05-19T20:57:18.369Z,94226.45
2019-05-19T20:59:45.789Z,94222.31
2019-05-19T21:02:13.233Z,94231.69
2019-05-19T21:04:40.679Z,94238.67
2019-05-19T21:07:08.181Z,94231.17
2019-05-19T21:09:35.577Z,94232.03
2019-05-19T21:12:03.099Z,94236.38
2019-05-19T21:14:30.606Z,94236.80
2019-05-19T21:16:58.917Z,94224.34
2019-05-19T21:19:28.595Z,94220.33
2019-05-19T21:21:56.150Z,94226.99
2019-05-19T21:24:24.767Z,94227.61
2019-05-19T21:26:53.074Z,94232.45
2019-05-19T21:29:20.683Z,94243.22
2019-05-19T21:31:48.114Z,94234.95
2019-05-19T21:34:15.831Z,94247.41
2019-05-19T21:36:43.291Z,94243.81
2019-05-19T21:39:10.832Z,94239.23
2019-05-19T21:41:38.339Z,94221.34
2019-05-19T21:44:05.840Z,94240.44
2019-05-19T21:46:33.300Z,94246.69
2019-05-19T21:49:00.684Z,94230.55
2019-05-19T21:51:28.167Z,94207.44
2019-05-19T21:53:55.663Z,94229.29
2019-05-19T21:56:23.083Z,94231.06
2019-05-19T21:58:50.518Z,94241.62
2019-05-19T22:01:23.307Z,94250.14
2019-05-19T22:03:47.548Z,94226.48
2019-05-19T22:06:15.713Z,94194.97
2019-05-19T22:08:43.183Z,94243.48
2019-05-19T22:11:10.668Z,94237.63
2019-05-19T22:13:38.146Z,94216.59
2019-05-19T22:16:13.124Z,94225.78
2019-05-19T22:18:34.983Z,94246.70
2019-05-19T22:21:02.695Z,94223.16
2019-05-19T22:23:30.262Z,94201.08
2019-05-19T22:25:57.761Z,94215.00
2019-05-19T22:28:25.362Z,94249.00
2019-05-19T22:30:52.836Z,94241.30
2019-05-19T22:33:20.363Z,94218.09
2019-05-19T22:35:47.767Z,94253.57
2019-05-19T22:38:15.229Z,94240.57
2019-05-19T22:40:42.838Z,94209.33
2019-05-19T22:43:10.261Z,94227.38
2019-05-19T22:45:37.776Z,94242.37
2019-05-19T22:48:05.243Z,94231.49
2019-05-19T22:50:32.674Z,94243.31
2019-05-19T22:53:00.128Z,94228.09
2019-05-19T22:55:27.618Z,94249.13
2019-05-19T22:57:55.037Z,94250.15
2019-05-19T23:00:22.833Z,94233.59
2019-05-19T23:02:50.295Z,94245.11
2019-05-19T23:05:18.545Z,94246.68
2019-05-19T23:07:45.980Z,94228.84
2019-05-19T23:10:14.222Z,94224.60
2019-05-19T23:12:41.631Z,94246.64
2019-05-19T23:15:09.695Z,94226.69
2019-05-19T23:17:37.168Z,94227.47
2019-05-19T23:20:05.222Z,94257.91
2019-05-19T23:22:32.768Z,94248.41
2019-05-19T23:25:00.195Z,94247.79
2019-05-19T23:27:27.634Z,94237.41
2019-05-19T23:29:55.190Z,94244.49
2019-05-19T23:32:22.753Z,94253.17
2019-05-19T23:34:50.184Z,94243.61
2019-05-19T23:37:17.716Z,94251.05
2019-05-19T23:39:45.181Z,94246.06
2019-05-19T23:42:12.624Z,94246.05
2019-05-19T23:44:40.219Z,94257.31
2019-05-19T23:47:07.718Z,94254.03
2019-05-19T23:49:35.202Z,94251.73
2019-05-19T23:52:02.721Z,94265.24
2019-05-19T23:54:30.227Z,94269.77
2019-05-19T23:56:57.711Z,94256.80
2019-05-19T23:59:25.091Z,94280.48
